Arbúcies





Hora UTC 17:10
Temperatura 23.0 ºC
Humitat 51.3 %
Pressió 1032.0 hPa
Pluja 0.0 mm
Velocitat vent 2.3 km/h
Direcció vent ENE
Radiació solar 241.8 W/m²

Dades diàries 2020-05-25



Hora UTC (hivern +1h; estiu +2h)
Temperatura (ºC) Humitat (%) Pressió (hPa) Velocitat vent (km/h) Precipitació (mm) Radiació solar (W/m²)
Hora UTC Aire Humitat Pressió Vel. Dir. Vel. Max Dir. Intent. màx 5 min. Rad. Sol.
00:05 17.1 83.4 1033.0 2.5 SW 4.6 SW 0.0 0.0
00:10 17.0 83.2 1033.0 3.1 SW 5.3 SW 0.0 0.0
00:15 17.0 83.2 1034.0 4.0 SW 6.0 SW 0.0 0.0
00:20 16.9 83.0 1033.0 4.1 SW 6.0 WSW 0.0 0.0
00:25 16.8 82.0 1033.0 4.6 SW 6.0 SW 0.0 0.0
00:30 16.7 80.1 1033.0 5.2 SW 7.1 SW 0.0 0.0
00:35 16.8 79.1 1033.0 4.7 SW 6.4 SW 0.0 0.0
00:40 16.7 78.0 1033.0 4.2 SW 5.6 SW 0.0 0.0
00:45 16.7 77.3 1033.0 3.8 SW 7.1 SW 0.0 0.0
00:50 16.6 77.0 1033.0 4.4 SW 6.4 SW 0.0 0.0
00:55 16.6 76.6 1033.0 5.1 SSW 6.7 SSW 0.0 0.0
01:00 16.4 75.5 1033.0 3.8 SW 5.3 SW 0.0 0.0
01:05 16.5 75.4 1033.0 2.7 SW 3.9 SW 0.0 0.0
01:10 16.4 75.3 1033.0 4.3 SSW 6.7 SW 0.0 0.0
01:15 16.4 75.3 1033.0 6.6 SW 8.8 SW 0.0 0.0
01:20 16.4 75.7 1033.0 5.4 SSW 7.8 SW 0.0 0.0
01:25 16.4 75.9 1033.0 4.2 SW 6.4 SSW 0.0 0.0
01:30 16.4 76.3 1033.0 4.0 SW 5.6 SSW 0.0 0.0
01:35 16.2 76.0 1033.0 2.8 SW 3.9 SW 0.0 0.0
01:40 16.2 76.1 1033.0 3.4 SW 4.6 SW 0.0 0.0
01:45 16.2 76.3 1033.0 3.9 SW 4.9 SW 0.0 0.0
01:50 16.2 76.4 1033.0 5.2 SW 7.4 SSW 0.0 0.0
01:55 16.2 75.8 1033.0 5.0 SSW 7.1 SSW 0.0 0.0
02:00 16.4 74.7 1033.0 4.3 SSW 7.1 SW 0.0 0.0
02:05 16.4 74.9 1033.0 2.3 SW 4.6 SSW 0.0 0.0
02:10 16.3 75.5 1033.0 4.5 SW 6.4 SW 0.0 0.0
02:15 16.2 75.8 1033.0 5.2 SSW 7.8 SSW 0.0 0.0
02:20 16.2 75.4 1032.0 3.8 SW 4.9 SSW 0.0 0.0
02:25 16.2 75.5 1033.0 2.7 SW 4.2 SW 0.0 0.0
02:30 16.2 76.2 1033.0 1.4 WSW 2.8 SW 0.0 0.0
02:35 16.0 76.6 1033.0 3.2 SSW 3.9 SW 0.0 0.0
02:40 16.0 76.8 1033.0 2.5 WSW 4.2 S 0.0 0.0
02:45 15.9 77.2 1033.0 1.1 WSW 3.5 SW 0.0 0.0
02:50 15.8 77.4 1033.0 2.0 WSW 2.8 WSW 0.0 0.0
02:55 15.8 77.3 1033.0 3.5 SW 5.3 SW 0.0 0.0
03:00 15.7 76.8 1033.0 3.8 SW 4.9 SW 0.0 0.0
03:05 15.8 77.1 1033.0 3.7 SW 4.9 SW 0.0 0.0
03:10 15.8 77.3 1033.0 2.8 SW 4.9 SW 0.0 0.0
03:15 15.7 77.4 1033.0 3.5 SW 4.9 SW 0.0 0.0
03:20 15.7 77.5 1033.0 4.6 SW 6.0 SW 0.0 0.0
03:25 15.8 77.3 1033.0 4.4 SW 6.0 SW 0.0 0.0
03:30 15.8 77.5 1033.0 3.1 SW 4.6 SW 0.0 0.0
03:35 15.7 77.6 1033.0 3.3 SW 4.9 SW 0.0 0.0
03:40 15.7 77.2 1033.0 5.3 SSW 9.2 SSW 0.0 0.0
03:45 16.0 75.6 1033.0 5.8 SSW 9.2 SSW 0.0 0.0
03:50 16.1 75.7 1033.0 4.4 SW 6.4 SW 0.0 0.0
03:55 16.0 76.0 1033.0 5.0 SSW 7.4 SSW 0.0 0.0
04:00 16.0 75.0 1033.0 6.1 SSW 8.5 S 0.0 0.0
04:05 16.1 74.6 1033.0 5.6 SW 8.5 SSW 0.0 0.0
04:10 16.1 75.5 1033.0 4.2 SW 7.8 SSW 0.0 0.0
04:15 16.0 76.1 1033.0 4.3 SSW 6.4 SW 0.0 0.9
04:20 15.9 75.6 1033.0 5.9 SSW 9.2 SSW 0.0 2.7
04:25 16.0 74.9 1033.0 5.8 SSW 9.5 SW 0.0 4.4
04:30 16.2 74.0 1033.0 4.6 SSW 7.8 SSW 0.0 5.6
04:35 16.2 74.1 1033.0 4.9 SSW 7.1 SW 0.0 9.5
04:40 16.2 74.9 1033.0 3.0 SW 4.6 SW 0.0 15.7
04:45 16.1 75.4 1033.0 2.3 SW 4.2 SW 0.0 23.0
04:50 16.1 75.9 1033.0 2.6 SW 4.6 SSW 0.0 30.4
04:55 16.2 76.8 1033.0 0.5 WSW 2.5 WSW 0.0 38.1
05:00 16.0 77.2 1033.0 2.4 SW 4.6 SW 0.0 40.4
05:05 16.1 77.2 1033.0 3.9 SW 4.9 SW 0.0 39.9
05:10 16.2 77.3 1034.0 3.4 SW 5.3 SSW 0.0 48.2
05:15 16.3 76.4 1033.0 4.0 SSW 4.9 SSW 0.0 46.1
05:20 16.4 74.7 1033.0 3.6 SW 5.3 SSW 0.0 51.7
05:25 16.5 75.6 1033.0 2.8 WSW 4.6 WSW 0.0 66.0
05:30 16.5 75.7 1033.0 2.1 SW 3.9 SW 0.0 62.4
05:35 16.7 76.2 1033.0 2.8 SW 4.6 SW 0.0 56.6
05:40 16.7 75.6 1034.0 2.9 SSW 4.6 SW 0.0 60.0
05:45 16.8 75.4 1033.0 3.0 SW 4.6 SSW 0.0 65.7
05:50 16.9 75.7 1033.0 2.6 SW 3.9 SW 0.0 81.1
05:55 17.0 75.7 1033.0 2.4 SW 3.5 WSW 0.0 89.1
06:00 17.1 75.1 1033.0 2.0 SW 2.8 WSW 0.0 95.4
06:05 17.3 74.7 1033.0 1.1 SW 2.1 SW 0.0 98.4
06:10 17.5 73.9 1034.0 0.0 W 0.4 SW 0.0 99.4
06:15 17.5 73.7 1033.0 0.0 NW 0.4 NW 0.0 100.2
06:20 17.6 73.2 1033.0 0.6 NNE 2.1 NNE 0.0 110.1
06:25 18.0 73.9 1033.0 0.4 NNE 2.5 N 0.0 121.7
06:30 18.0 70.8 1033.0 3.4 NE 7.4 NE 0.0 132.4
06:35 18.0 66.8 1033.0 3.2 NNE 7.1 ENE 0.0 129.7
06:40 18.0 65.0 1034.0 3.3 NNE 5.3 NNE 0.0 130.5
06:45 18.1 63.5 1033.0 3.2 NNE 8.1 NNE 0.0 140.1
06:50 18.3 62.0 1034.0 4.0 NNE 9.2 NE 0.0 139.2
06:55 18.4 61.9 1033.0 2.6 N 5.3 NNE 0.0 143.9
07:00 18.4 59.2 1033.0 3.0 NNE 6.7 NE 0.0 156.2
07:05 18.4 58.7 1034.0 3.6 NE 7.8 NE 0.0 168.3
07:10 18.6 58.0 1034.0 1.9 N 4.2 NNE 0.0 204.3
07:15 18.6 57.4 1033.0 3.5 NNE 7.4 NE 0.0 228.6
07:20 18.8 55.6 1034.0 4.2 NE 7.8 NE 0.0 253.7
07:25 18.8 51.2 1033.0 6.2 NE 9.9 ENE 0.0 286.0
07:30 19.0 53.1 1033.0 1.9 N 6.0 NNE 0.0 264.5
07:35 19.2 51.8 1033.0 2.2 NE 6.0 ENE 0.0 342.0
07:40 19.7 50.9 1034.0 1.6 NE 4.2 NE 0.0 403.7
07:45 20.3 48.0 1033.0 1.6 NE 6.7 ENE 0.0 483.6
07:50 20.4 46.3 1033.0 2.6 NE 5.6 ENE 0.0 520.1
07:55 21.1 47.1 1033.0 0.7 ENE 3.9 NE 0.0 641.3
08:00 21.4 44.4 1033.0 2.5 ENE 4.6 ENE 0.0 633.6
08:05 21.0 46.2 1033.0 2.3 NW 4.6 N 0.0 635.3
08:10 20.9 47.7 1034.0 1.4 WNW 6.0 ENE 0.0 647.3
08:15 21.1 47.1 1033.0 3.5 NNE 6.4 ENE 0.0 555.6
08:20 21.4 48.5 1033.0 3.9 ENE 7.1 E 0.0 631.1
08:25 21.8 48.3 1033.0 3.8 NE 9.9 ENE 0.0 657.2
08:30 21.7 48.0 1033.0 4.6 NE 9.5 NE 0.0 683.2
08:35 21.9 50.5 1033.0 5.2 NNE 9.5 ENE 0.0 730.7
08:40 22.3 50.1 1033.0 2.8 NNE 8.5 NNE 0.0 550.7
08:45 21.8 49.3 1033.0 6.0 ENE 12.3 ENE 0.0 676.2
08:50 21.7 50.0 1033.0 5.0 NNE 10.2 NE 0.0 630.1
08:55 21.7 49.3 1033.0 4.1 NE 8.8 ENE 0.0 572.4
09:00 21.7 51.1 1033.0 3.8 N 7.4 NE 0.0 470.1
09:05 21.5 48.5 1033.0 1.5 NNE 4.2 ENE 0.0 483.1
09:10 21.9 51.4 1034.0 2.9 N 6.4 N 0.0 710.7
09:15 22.7 48.6 1033.0 6.1 NE 14.1 ENE 0.0 848.0
09:20 23.2 47.4 1033.0 3.6 NNE 8.8 ENE 0.0 885.0
09:25 23.3 46.0 1033.0 4.0 NNE 14.1 NE 0.0 860.0
09:30 23.2 46.2 1033.0 8.3 NE 14.5 ENE 0.0 566.3
09:35 22.8 48.4 1033.0 4.3 NNE 14.8 NNE 0.0 553.9
09:40 23.0 48.3 1034.0 7.1 NE 13.8 NE 0.0 557.8
09:45 22.6 48.2 1033.0 5.7 NE 14.1 NE 0.0 712.5
09:50 22.7 48.6 1033.0 6.0 NNE 10.9 ENE 0.0 545.6
09:55 22.6 48.8 1033.0 7.1 NNE 14.1 NE 0.0 486.6
10:00 22.4 50.0 1033.0 6.5 NNE 14.1 NNW 0.0 603.6
10:05 22.9 47.6 1033.0 7.8 NE 13.4 NNE 0.0 648.0
10:10 22.9 47.6 1034.0 4.6 NNE 8.5 NNE 0.0 582.6
10:15 22.9 46.1 1033.0 6.6 NE 12.3 NE 0.0 508.0
10:20 23.0 47.3 1033.0 6.3 NE 10.2 NNE 0.0 523.3
10:25 23.1 48.6 1033.0 4.7 NNE 10.6 NE 0.0 487.5
10:30 23.1 46.8 1033.0 5.0 NNE 11.6 N 0.0 486.6
10:35 22.8 46.0 1033.0 6.8 ENE 12.7 ENE 0.0 412.2
10:40 22.3 48.2 1034.0 6.6 NNE 12.7 NNE 0.0 328.4
10:45 22.2 48.1 1033.0 4.3 ENE 10.6 NNE 0.0 266.4
10:50 22.3 48.1 1033.0 6.0 NE 11.3 ENE 0.0 250.0
10:55 22.1 49.3 1033.0 7.4 NE 15.5 ENE 0.0 270.1
11:00 22.2 51.9 1033.0 5.9 NNE 14.1 ENE 0.0 280.2
11:05 22.3 51.6 1033.0 4.1 NNE 8.5 NNE 0.0 318.5
11:10 22.5 49.1 1034.0 2.4 ESE 8.1 ENE 0.0 317.0
11:15 22.6 47.7 1033.0 3.5 NE 7.8 ENE 0.0 311.3
11:20 22.7 47.1 1033.0 0.8 ESE 4.2 E 0.0 292.8
11:25 22.8 49.5 1033.0 3.3 NE 9.5 NE 0.0 288.6
11:30 22.9 48.3 1033.0 3.9 NE 7.8 ENE 0.0 316.4
11:35 22.9 50.3 1033.0 4.3 NNE 7.4 NNE 0.0 320.3
11:40 23.1 49.2 1034.0 3.7 NE 7.4 NE 0.0 325.9
11:45 22.9 49.6 1033.0 0.7 NW 2.5 NW 0.0 347.9
11:50 22.8 51.6 1033.0 2.0 NW 3.2 NNW 0.0 345.3
11:55 22.6 49.7 1033.0 2.4 W 4.6 WSW 0.0 309.4
12:00 22.8 51.2 1033.0 2.8 WSW 4.6 WSW 0.0 306.7
12:05 23.0 48.9 1033.0 2.8 WSW 4.6 SW 0.0 331.1
12:10 22.9 51.2 1033.0 1.1 WSW 3.5 WSW 0.0 327.2
12:15 23.2 48.1 1033.0 1.4 W 5.3 W 0.0 286.9
12:20 23.0 47.6 1033.0 2.2 WSW 4.6 WSW 0.0 277.0
12:25 23.1 49.1 1033.0 2.0 WSW 3.9 SW 0.0 291.2
12:30 23.3 49.2 1033.0 2.1 WSW 4.9 WSW 0.0 319.9
12:35 23.4 46.9 1033.0 1.0 SW 3.5 SW 0.0 381.0
12:40 23.8 45.9 1033.0 0.6 ENE 3.2 NE 0.0 389.4
12:45 23.9 46.7 1032.0 2.3 NE 5.3 NE 0.0 334.6
12:50 23.9 46.6 1033.0 2.4 NE 5.6 ENE 0.0 339.4
12:55 23.8 45.5 1032.0 1.0 ENE 3.9 NE 0.0 338.7
13:00 23.5 46.5 1032.0 1.9 SE 3.5 SSE 0.0 345.0
13:05 23.4 47.0 1032.0 2.0 NE 4.9 ENE 0.0 341.0
13:10 23.6 47.5 1033.0 1.7 ESE 3.9 NE 0.0 346.0
13:15 23.7 48.0 1032.0 1.5 S 6.4 W 0.0 344.9
13:20 23.8 47.6 1032.0 2.6 WSW 6.7 SSW 0.0 334.5
13:25 23.8 48.5 1032.0 3.6 SW 6.7 SW 0.0 304.8
13:30 23.8 47.8 1032.0 1.9 SW 7.4 WSW 0.0 296.8
13:35 24.0 48.5 1032.0 1.6 WSW 3.9 WSW 0.0 300.5
13:40 23.9 49.8 1033.0 2.0 WSW 3.5 WNW 0.0 286.3
13:45 23.8 50.7 1032.0 3.0 SW 6.7 SW 0.0 287.3
13:50 23.9 49.6 1032.0 3.9 SW 6.4 SW 0.0 293.2
13:55 24.0 48.8 1032.0 4.2 SW 6.4 SSW 0.0 296.1
14:00 24.0 47.9 1032.0 3.5 SSW 5.6 S 0.0 302.2
14:05 23.9 48.3 1032.0 3.4 SW 6.7 SSW 0.0 288.1
14:10 24.0 46.5 1032.0 2.8 SSW 4.9 SW 0.0 293.9
14:15 24.4 51.4 1032.0 0.8 NNE 2.8 NE 0.0 343.8
14:20 24.4 48.2 1032.0 5.4 ENE 11.3 NE 0.0 407.2
14:25 24.3 48.7 1032.0 4.8 ENE 13.4 NE 0.0 567.4
14:30 24.1 47.1 1032.0 8.3 ENE 14.8 ENE 0.0 436.2
14:35 23.8 48.9 1032.0 8.2 ENE 16.6 E 0.0 355.6
14:40 23.4 49.1 1032.0 7.7 ENE 16.9 ENE 0.0 409.8
14:45 23.6 49.6 1032.0 5.9 ENE 14.8 ENE 0.0 572.2
14:50 24.2 48.0 1032.0 5.1 ENE 9.9 ENE 0.0 415.7
14:55 24.3 48.1 1032.0 4.3 NE 8.1 NE 0.0 333.5
15:00 24.5 48.5 1032.0 1.8 N 4.6 NE 0.0 305.1
15:05 24.4 46.5 1032.0 4.3 ENE 9.2 NNE 0.0 307.5
15:10 24.0 48.0 1032.0 4.8 ENE 11.6 ENE 0.0 302.4
15:15 23.8 48.6 1032.0 6.3 ENE 10.9 NE 0.0 276.0
15:20 23.6 49.8 1032.0 6.7 ENE 12.0 E 0.0 290.5
15:25 23.8 49.6 1032.0 5.6 ENE 10.9 ENE 0.0 636.3
15:30 24.0 49.8 1032.0 10.6 ENE 15.2 ENE 0.0 554.7
15:35 23.7 50.5 1032.0 9.9 ENE 15.5 E 0.0 456.1
15:40 23.6 50.8 1032.0 7.4 E 15.9 NE 0.0 584.7
15:45 23.6 50.0 1032.0 8.3 ENE 13.8 NE 0.0 581.6
15:50 23.6 49.8 1032.0 7.5 ENE 12.3 ENE 0.0 575.0
15:55 23.7 49.6 1032.0 7.0 ENE 13.8 ENE 0.0 560.6
16:00 23.9 48.8 1032.0 5.5 E 14.5 ENE 0.0 558.7
16:05 24.0 47.8 1031.0 7.0 E 14.8 ENE 0.0 546.4
16:10 24.3 47.8 1032.0 5.9 ENE 16.9 ENE 0.0 558.7
16:15 24.5 47.3 1032.0 7.3 ENE 14.8 ENE 0.0 500.8
16:20 24.1 47.2 1032.0 5.8 ENE 11.3 NE 0.0 465.7
16:25 24.0 47.0 1032.0 7.4 ENE 14.1 ENE 0.0 506.4
16:30 23.6 47.6 1032.0 6.6 ENE 16.9 ENE 0.0 369.0
16:35 23.4 48.7 1031.0 4.4 ENE 10.6 ENE 0.0 398.3
16:40 23.4 47.3 1032.0 3.7 E 8.8 SE 0.0 311.1
16:45 23.5 48.4 1032.0 2.8 ENE 8.8 ENE 0.0 347.7
16:50 23.4 48.9 1031.0 3.0 E 6.4 NNE 0.0 353.4
16:55 23.4 49.0 1031.0 2.4 ENE 6.7 ENE 0.0 334.6
17:00 23.5 49.3 1032.0 4.5 ENE 8.8 NE 0.0 313.8
17:05 23.0 49.6 1031.0 4.0 ESE 9.9 ENE 0.0 165.4
17:10 23.0 51.3 1032.0 2.3 ENE 5.6 ENE 0.0 241.8
Màxima 24.5 83.4 1034.0 10.6 ENE 16.9 ENE 0.0 885.0
Mínima 15.7 44.4 1031.0
Total 0.0